createdAt,value
2022-09-26T00:01:20.740Z,792.90
2022-09-26T00:03:49.884Z,789.03
2022-09-26T00:06:20.430Z,793.90
2022-09-26T00:08:50.146Z,791.43
2022-09-26T00:11:20.593Z,788.17
2022-09-26T00:13:48.892Z,785.73
2022-09-26T00:16:17.431Z,782.20
2022-09-26T00:18:49.264Z,792.50
2022-09-26T00:21:17.711Z,791.13
2022-09-26T00:23:45.983Z,787.87
2022-09-26T00:26:15.508Z,802.17
2022-09-26T00:28:43.872Z,787.87
2022-09-26T00:31:13.912Z,787.77
2022-09-26T00:33:42.212Z,798.37
2022-09-26T00:36:11.721Z,787.73
2022-09-26T00:38:40.992Z,794.23
2022-09-26T00:41:09.423Z,785.80
2022-09-26T00:43:39.971Z,789.53
2022-09-26T00:46:26.718Z,788.53
2022-09-26T00:49:00.573Z,789.50
2022-09-26T00:51:30.030Z,786.53
2022-09-26T00:53:58.231Z,790.40
2022-09-26T00:56:30.278Z,783.13
2022-09-26T00:59:03.072Z,790.93
2022-09-26T01:01:31.229Z,797.13
2022-09-26T01:03:59.813Z,800.63
2022-09-26T01:06:29.241Z,790.90
2022-09-26T01:09:00.408Z,792.13
2022-09-26T01:11:31.976Z,794.50
2022-09-26T01:14:00.189Z,792.87
2022-09-26T01:16:28.343Z,798.87
2022-09-26T01:18:56.587Z,795.43
2022-09-26T01:21:49.407Z,795.70
2022-09-26T01:24:39.877Z,793.10
2022-09-26T01:27:31.132Z,791.10
2022-09-26T01:30:06.980Z,794.97
2022-09-26T01:33:16.725Z,790.17
2022-09-26T01:35:57.332Z,792.17
2022-09-26T01:38:35.698Z,797.90
2022-09-26T01:41:18.555Z,800.03
2022-09-26T01:43:52.423Z,794.53
2022-09-26T01:46:28.928Z,804.40
2022-09-26T01:49:01.933Z,804.50
2022-09-26T01:51:34.749Z,805.97
2022-09-26T01:54:05.486Z,800.17
2022-09-26T01:56:36.676Z,799.77
2022-09-26T01:59:07.608Z,801.53
2022-09-26T02:01:41.100Z,802.43
2022-09-26T02:04:11.722Z,801.77
2022-09-26T02:06:43.516Z,797.60
2022-09-26T02:09:13.378Z,801.73
2022-09-26T02:11:44.677Z,801.67
2022-09-26T02:14:17.338Z,804.03
2022-09-26T02:16:48.898Z,804.87
2022-09-26T02:19:20.763Z,801.50
2022-09-26T02:21:48.963Z,805.43
2022-09-26T02:24:18.563Z,804.83
2022-09-26T02:26:46.600Z,799.53
2022-09-26T02:29:15.314Z,799.63
2022-09-26T02:31:49.227Z,799.80
2022-09-26T02:34:17.474Z,802.20
2022-09-26T02:36:46.286Z,805.03
2022-09-26T02:39:14.383Z,801.17
2022-09-26T02:41:57.385Z,800.60
2022-09-26T02:44:38.651Z,802.07
2022-09-26T02:47:20.496Z,801.43
2022-09-26T02:50:08.881Z,798.20
2022-09-26T02:52:41.985Z,791.23
2022-09-26T02:55:16.614Z,794.30
2022-09-26T02:57:50.957Z,794.97
2022-09-26T03:00:21.944Z,796.80
2022-09-26T03:02:58.137Z,792.23
2022-09-26T03:05:28.016Z,793.03
2022-09-26T03:07:59.462Z,795.90
2022-09-26T03:10:29.504Z,794.83
2022-09-26T03:13:02.584Z,789.93
2022-09-26T03:15:31.006Z,793.00
2022-09-26T03:18:02.658Z,784.93
2022-09-26T03:20:31.032Z,786.77
2022-09-26T03:22:58.967Z,785.47
2022-09-26T03:25:28.825Z,782.40
2022-09-26T03:28:05.686Z,780.97
2022-09-26T03:30:34.529Z,780.83
2022-09-26T03:33:32.845Z,778.80
2022-09-26T03:36:00.870Z,779.67
2022-09-26T03:38:28.945Z,786.23
2022-09-26T03:41:11.023Z,776.50
2022-09-26T03:43:57.713Z,786.53
2022-09-26T03:46:37.562Z,779.53
2022-09-26T03:49:09.195Z,781.23
2022-09-26T03:51:37.331Z,775.57
2022-09-26T03:54:05.540Z,781.83
2022-09-26T03:56:33.630Z,782.47
2022-09-26T03:59:01.600Z,781.53
2022-09-26T04:01:29.819Z,779.50
2022-09-26T04:03:58.027Z,782.43
2022-09-26T04:06:27.737Z,777.63
2022-09-26T04:08:55.738Z,783.60
2022-09-26T04:11:24.799Z,784.80
2022-09-26T04:13:54.173Z,785.87
2022-09-26T04:16:27.445Z,780.73
2022-09-26T04:19:02.466Z,783.40
2022-09-26T04:21:35.339Z,786.07
2022-09-26T04:24:03.615Z,786.57
2022-09-26T04:26:31.992Z,784.17
2022-09-26T04:29:00.275Z,782.50
2022-09-26T04:31:48.477Z,788.27
2022-09-26T04:34:26.221Z,789.30
2022-09-26T04:36:57.262Z,795.43
2022-09-26T04:39:25.960Z,786.80
2022-09-26T04:41:54.484Z,790.83
2022-09-26T04:44:22.704Z,785.87
2022-09-26T04:46:50.680Z,788.87
2022-09-26T04:49:21.612Z,793.13
2022-09-26T04:51:49.868Z,786.03
2022-09-26T04:54:19.272Z,796.67
2022-09-26T04:56:48.060Z,792.90
2022-09-26T04:59:16.135Z,790.97
2022-09-26T05:02:01.480Z,791.20
2022-09-26T05:04:36.024Z,789.23
2022-09-26T05:07:04.123Z,793.50
2022-09-26T05:09:36.353Z,791.50
2022-09-26T05:12:34.055Z,793.67
2022-09-26T05:15:02.118Z,796.93
2022-09-26T05:17:31.073Z,791.63
2022-09-26T05:20:02.224Z,792.63
2022-09-26T05:22:42.341Z,792.97
2022-09-26T05:25:29.370Z,799.40
2022-09-26T05:27:57.417Z,791.70
2022-09-26T05:30:25.839Z,793.57
2022-09-26T05:32:54.532Z,786.63
2022-09-26T05:35:23.558Z,793.60
2022-09-26T05:37:59.458Z,789.93
2022-09-26T05:40:49.514Z,780.27
2022-09-26T05:43:17.610Z,782.33
2022-09-26T05:45:50.824Z,783.07
2022-09-26T05:48:22.891Z,783.03
2022-09-26T05:50:51.365Z,789.60
2022-09-26T05:53:19.405Z,780.37
2022-09-26T05:55:51.689Z,774.53
2022-09-26T05:58:32.280Z,778.73
2022-09-26T06:01:19.483Z,773.53
2022-09-26T06:03:54.364Z,781.53
2022-09-26T06:06:27.932Z,779.47
2022-09-26T06:09:03.689Z,779.97
2022-09-26T06:11:51.471Z,771.73
2022-09-26T06:14:19.377Z,774.93
2022-09-26T06:16:47.451Z,768.37
2022-09-26T06:19:18.438Z,769.50
2022-09-26T06:21:50.083Z,765.13
2022-09-26T06:24:20.321Z,765.77
2022-09-26T06:26:53.099Z,760.47
2022-09-26T06:29:21.004Z,761.00
2022-09-26T06:31:49.395Z,766.23
2022-09-26T06:34:43.510Z,755.83
2022-09-26T06:37:31.634Z,761.57
2022-09-26T06:40:01.569Z,761.27
2022-09-26T06:42:37.984Z,758.77
2022-09-26T06:45:19.190Z,753.20
2022-09-26T06:48:05.566Z,748.40
2022-09-26T06:50:54.066Z,757.20
2022-09-26T06:53:22.373Z,757.20
2022-09-26T06:55:50.526Z,756.67
2022-09-26T06:58:20.048Z,758.60
2022-09-26T07:01:00.977Z,751.00
2022-09-26T07:03:47.773Z,749.67
2022-09-26T07:06:32.946Z,747.57
2022-09-26T07:09:04.093Z,754.20
2022-09-26T07:14:42.417Z,745.30
2022-09-26T07:17:31.174Z,750.57
2022-09-26T07:19:59.269Z,746.03
2022-09-26T07:22:45.789Z,740.00
2022-09-26T07:25:14.937Z,742.67
2022-09-26T07:27:42.992Z,742.97
2022-09-26T07:30:13.994Z,734.73
2022-09-26T07:32:52.307Z,733.73
2022-09-26T07:35:35.481Z,725.80
2022-09-26T07:38:05.141Z,725.13
2022-09-26T07:40:33.797Z,729.13
2022-09-26T07:46:12.579Z,720.53
2022-09-26T07:49:01.349Z,718.93
2022-09-26T07:51:56.021Z,716.43
2022-09-26T07:54:28.489Z,724.73
2022-09-26T07:57:17.045Z,734.27
2022-09-26T08:00:09.578Z,732.40
2022-09-26T08:02:52.716Z,725.63
2022-09-26T08:05:21.214Z,733.07
2022-09-26T08:07:50.705Z,731.20
2022-09-26T08:10:38.614Z,722.90
2022-09-26T08:13:25.075Z,723.37
2022-09-26T08:16:19.585Z,721.60
2022-09-26T08:18:50.029Z,717.23
2022-09-26T08:21:19.276Z,718.13
2022-09-26T08:23:47.812Z,717.93
2022-09-26T08:26:44.181Z,729.60
2022-09-26T08:29:22.085Z,726.63
2022-09-26T08:31:54.783Z,733.13
2022-09-26T08:34:25.804Z,721.60
2022-09-26T08:37:16.923Z,732.13
2022-09-26T08:40:17.092Z,738.97
2022-09-26T08:43:07.735Z,748.83
2022-09-26T08:46:43.040Z,734.13
2022-09-26T08:49:40.682Z,740.20
2022-09-26T08:52:22.146Z,736.97
2022-09-26T08:54:50.490Z,747.97
2022-09-26T08:57:31.767Z,748.80
2022-09-26T08:59:59.966Z,750.37
2022-09-26T09:02:32.894Z,755.17
2022-09-26T09:05:10.070Z,751.67
2022-09-26T09:07:42.677Z,755.93
2022-09-26T09:10:30.037Z,744.20
2022-09-26T09:13:13.466Z,735.63
2022-09-26T09:16:12.137Z,748.73
2022-09-26T09:19:13.962Z,752.00
2022-09-26T09:22:23.539Z,751.13
2022-09-26T09:25:16.001Z,754.70
2022-09-26T09:28:00.053Z,762.80
2022-09-26T09:30:33.866Z,767.30
2022-09-26T09:33:38.250Z,768.80
2022-09-26T09:36:33.422Z,761.23
2022-09-26T09:39:24.317Z,758.50
2022-09-26T09:42:04.952Z,769.73
2022-09-26T09:44:46.415Z,774.17
2022-09-26T09:47:16.199Z,762.40
2022-09-26T09:49:45.201Z,764.07
2022-09-26T09:52:47.570Z,769.83
2022-09-26T09:55:32.494Z,771.17
2022-09-26T09:58:12.223Z,772.20
2022-09-26T10:00:47.784Z,773.97
2022-09-26T10:03:27.604Z,775.80
2022-09-26T10:05:59.699Z,765.37
2022-09-26T10:08:36.676Z,774.77
2022-09-26T10:11:23.046Z,770.40
2022-09-26T10:14:01.948Z,772.20
2022-09-26T10:17:18.121Z,772.67
2022-09-26T10:19:52.631Z,769.87
2022-09-26T10:22:32.666Z,781.90
2022-09-26T10:25:05.132Z,784.03
2022-09-26T10:27:38.080Z,788.00
2022-09-26T10:30:21.734Z,788.80
2022-09-26T10:32:56.422Z,784.77
2022-09-26T10:35:46.410Z,771.30
2022-09-26T10:38:22.008Z,775.63
2022-09-26T10:40:59.643Z,775.93
2022-09-26T10:43:32.122Z,776.17
2022-09-26T10:46:10.197Z,777.00
2022-09-26T10:49:02.013Z,778.30
2022-09-26T10:51:51.927Z,770.13
2022-09-26T10:54:23.340Z,778.70
2022-09-26T10:56:59.245Z,775.47
2022-09-26T10:59:34.581Z,774.67
2022-09-26T11:02:03.953Z,779.17
2022-09-26T11:04:52.824Z,767.90
2022-09-26T11:07:42.456Z,765.57
2022-09-26T11:10:48.860Z,762.30
2022-09-26T11:13:23.182Z,765.03
2022-09-26T11:16:09.901Z,768.93
2022-09-26T11:18:48.861Z,761.73
2022-09-26T11:21:28.923Z,769.77
2022-09-26T11:24:04.946Z,776.60
2022-09-26T11:26:35.782Z,764.60
2022-09-26T11:29:13.432Z,764.17
2022-09-26T11:32:05.644Z,758.00
2022-09-26T11:35:03.566Z,759.23
2022-09-26T11:38:08.307Z,749.63
2022-09-26T11:40:47.973Z,737.13
2022-09-26T11:43:30.657Z,738.57
2022-09-26T11:46:18.563Z,736.47
2022-09-26T11:49:43.010Z,730.30
2022-09-26T11:52:21.555Z,731.93
2022-09-26T11:54:58.815Z,732.17
2022-09-26T11:57:36.471Z,740.63
2022-09-26T12:00:12.029Z,727.27
2022-09-26T12:02:56.014Z,741.63
2022-09-26T12:05:34.272Z,727.27
2022-09-26T12:08:22.062Z,736.17
2022-09-26T12:11:00.356Z,733.17
2022-09-26T12:13:38.007Z,728.07
2022-09-26T12:16:12.647Z,735.70
2022-09-26T12:18:49.351Z,732.67
2022-09-26T12:21:27.224Z,727.43
2022-09-26T12:23:56.742Z,732.27
2022-09-26T12:26:35.036Z,731.70
2022-09-26T12:29:16.209Z,736.73
2022-09-26T12:31:53.209Z,735.47
2022-09-26T12:34:38.427Z,727.10
2022-09-26T12:37:16.140Z,727.83
2022-09-26T12:40:00.693Z,723.30
2022-09-26T12:42:39.307Z,716.10
2022-09-26T12:45:43.710Z,726.97
2022-09-26T12:48:29.576Z,716.83
2022-09-26T12:51:10.381Z,729.93
2022-09-26T12:53:55.779Z,732.73
2022-09-26T12:56:38.159Z,729.93
2022-09-26T12:59:16.792Z,723.43
2022-09-26T13:02:00.735Z,730.90
2022-09-26T13:04:39.209Z,727.20
2022-09-26T13:07:19.346Z,717.87
2022-09-26T13:10:23.047Z,733.63
2022-09-26T13:13:08.325Z,727.93
2022-09-26T13:15:44.695Z,741.07
2022-09-26T13:18:17.418Z,742.40
2022-09-26T13:20:47.135Z,737.17
2022-09-26T13:23:21.463Z,749.60
2022-09-26T13:25:53.996Z,755.73
2022-09-26T13:28:25.703Z,769.83
2022-09-26T13:30:58.022Z,780.37
2022-09-26T13:33:29.523Z,778.50
2022-09-26T13:35:58.088Z,774.80
2022-09-26T13:38:39.107Z,774.63
2022-09-26T13:41:31.117Z,773.80
2022-09-26T13:44:06.862Z,772.20
2022-09-26T13:46:41.649Z,780.03
2022-09-26T13:49:27.400Z,785.53
2022-09-26T13:52:08.304Z,780.63
2022-09-26T13:54:54.006Z,785.20
2022-09-26T13:57:32.628Z,788.33
2022-09-26T14:00:01.972Z,789.87
2022-09-26T14:02:33.016Z,798.93
2022-09-26T14:05:30.022Z,797.93
2022-09-26T14:08:15.589Z,797.23
2022-09-26T14:10:53.970Z,795.30
2022-09-26T14:13:33.831Z,805.67
2022-09-26T14:16:03.680Z,812.67
2022-09-26T14:18:48.624Z,824.40
2022-09-26T14:21:32.870Z,824.83
2022-09-26T14:24:22.782Z,832.93
2022-09-26T14:26:53.145Z,826.47
2022-09-26T14:29:35.424Z,830.17
2022-09-26T14:32:05.601Z,841.30
2022-09-26T14:34:39.510Z,842.07
2022-09-26T14:37:28.789Z,843.27
2022-09-26T14:40:04.050Z,838.17
2022-09-26T14:42:35.184Z,831.50
2022-09-26T14:45:06.825Z,829.53
2022-09-26T14:47:40.660Z,824.93
2022-09-26T14:50:16.103Z,819.67
2022-09-26T14:52:52.315Z,809.20
2022-09-26T14:55:20.772Z,810.10
2022-09-26T14:57:50.744Z,808.50
2022-09-26T15:00:39.579Z,811.03
2022-09-26T15:03:09.108Z,803.27
2022-09-26T15:05:37.271Z,812.67
2022-09-26T15:08:05.541Z,808.63
2022-09-26T15:10:40.158Z,810.67
2022-09-26T15:13:20.956Z,809.63
2022-09-26T15:15:56.042Z,809.27
2022-09-26T15:18:32.361Z,806.07
2022-09-26T15:21:05.053Z,812.13
2022-09-26T15:23:34.964Z,808.30
2022-09-26T15:26:03.845Z,809.60
2022-09-26T15:28:34.774Z,802.03
2022-09-26T15:31:33.734Z,809.93
2022-09-26T15:34:04.324Z,800.50
2022-09-26T15:36:35.293Z,810.07
2022-09-26T15:39:26.348Z,806.97
2022-09-26T15:42:11.817Z,815.13
2022-09-26T15:44:47.986Z,807.60
2022-09-26T15:47:27.958Z,819.20
2022-09-26T15:50:04.811Z,820.40
2022-09-26T15:52:35.304Z,815.53
2022-09-26T15:55:04.184Z,816.87
2022-09-26T15:57:32.544Z,816.87
2022-09-26T16:00:01.534Z,819.80
2022-09-26T16:02:36.487Z,813.17
2022-09-26T16:05:06.108Z,817.33
2022-09-26T16:07:37.779Z,810.20
2022-09-26T16:10:07.277Z,810.93
2022-09-26T16:12:41.870Z,810.00
2022-09-26T16:15:17.870Z,816.87
2022-09-26T16:17:53.764Z,816.50
2022-09-26T16:20:26.492Z,813.53
2022-09-26T16:23:00.313Z,820.37
2022-09-26T16:25:35.442Z,819.53
2022-09-26T16:28:22.730Z,813.17
2022-09-26T16:31:14.846Z,818.23
2022-09-26T16:33:52.211Z,817.43
2022-09-26T16:36:23.658Z,822.00
2022-09-26T16:38:53.607Z,817.63
2022-09-26T16:41:56.164Z,825.03
2022-09-26T16:44:26.191Z,819.43
2022-09-26T16:46:58.948Z,824.70
2022-09-26T16:49:49.636Z,831.27
2022-09-26T16:52:26.558Z,827.07
2022-09-26T16:54:55.457Z,828.13
2022-09-26T16:57:26.740Z,831.73
2022-09-26T17:00:15.622Z,834.73
2022-09-26T17:02:42.887Z,835.60
2022-09-26T17:05:18.763Z,832.50
2022-09-26T17:07:47.891Z,836.30
2022-09-26T17:10:16.500Z,840.37
2022-09-26T17:12:48.980Z,842.47
2022-09-26T17:15:20.330Z,838.93
2022-09-26T17:17:48.802Z,840.77
2022-09-26T17:20:18.391Z,839.97
2022-09-26T17:22:46.482Z,839.20
2022-09-26T17:25:14.723Z,836.07
2022-09-26T17:27:43.953Z,836.63
2022-09-26T17:30:18.002Z,843.73
2022-09-26T17:32:49.702Z,846.00
2022-09-26T17:35:24.596Z,842.50
2022-09-26T17:37:52.820Z,855.77
2022-09-26T17:40:24.025Z,846.53
2022-09-26T17:42:55.335Z,842.00
2022-09-26T17:45:28.580Z,842.03
2022-09-26T17:47:58.824Z,837.73
2022-09-26T17:50:30.042Z,841.03
2022-09-26T17:52:59.028Z,843.77
2022-09-26T17:55:27.424Z,844.60
2022-09-26T17:57:56.885Z,836.73
2022-09-26T18:00:25.842Z,843.00
2022-09-26T18:02:56.044Z,842.40
2022-09-26T18:05:26.417Z,846.10
2022-09-26T18:07:58.717Z,859.57
2022-09-26T18:10:30.498Z,849.73
2022-09-26T18:13:00.580Z,848.50
2022-09-26T18:15:29.534Z,852.93
2022-09-26T18:17:58.944Z,852.83
2022-09-26T18:20:36.140Z,851.17
2022-09-26T18:23:06.628Z,855.57
2022-09-26T18:25:37.202Z,855.37
2022-09-26T18:28:08.070Z,848.43
2022-09-26T18:30:36.369Z,855.20
2022-09-26T18:33:05.809Z,851.37
2022-09-26T18:35:33.942Z,851.33
2022-09-26T18:38:02.384Z,849.40
2022-09-26T18:40:31.918Z,849.27
2022-09-26T18:43:00.128Z,857.67
2022-09-26T18:45:29.911Z,862.53
2022-09-26T18:47:58.026Z,858.13
2022-09-26T18:50:30.378Z,849.70
2022-09-26T18:52:58.833Z,847.80
2022-09-26T18:55:45.697Z,851.33
2022-09-26T18:58:25.743Z,851.70
2022-09-26T19:00:56.725Z,851.33
2022-09-26T19:03:26.740Z,855.33
2022-09-26T19:06:01.328Z,851.90
2022-09-26T19:08:33.483Z,849.47
2022-09-26T19:11:03.865Z,853.33
2022-09-26T19:13:33.791Z,852.10
2022-09-26T19:16:02.177Z,854.50
2022-09-26T19:18:30.395Z,860.87
2022-09-26T19:20:58.500Z,851.87
2022-09-26T19:23:30.554Z,853.37
2022-09-26T19:25:58.765Z,857.00
2022-09-26T19:28:29.223Z,861.60
2022-09-26T19:30:58.832Z,856.80
2022-09-26T19:33:27.212Z,859.77
2022-09-26T19:35:55.563Z,856.30
2022-09-26T19:38:25.418Z,855.97
2022-09-26T19:40:53.963Z,865.40
2022-09-26T19:43:23.114Z,857.53
2022-09-26T19:45:53.698Z,859.37
2022-09-26T19:48:23.815Z,857.43
2022-09-26T19:50:52.678Z,861.97
2022-09-26T19:53:22.914Z,858.47
2022-09-26T19:55:51.489Z,861.93
2022-09-26T19:58:21.298Z,858.80
2022-09-26T20:00:51.241Z,861.93
2022-09-26T20:03:21.100Z,867.13
2022-09-26T20:05:51.057Z,861.67
2022-09-26T20:08:22.086Z,856.67
2022-09-26T20:10:50.758Z,863.53
2022-09-26T20:13:19.617Z,858.53
2022-09-26T20:15:48.469Z,859.50
2022-09-26T20:18:20.758Z,860.43
2022-09-26T20:20:52.935Z,857.93
2022-09-26T20:23:23.104Z,865.97
2022-09-26T20:26:03.445Z,861.33
2022-09-26T20:28:32.099Z,859.57
2022-09-26T20:31:01.061Z,857.87
2022-09-26T20:33:30.056Z,858.03
2022-09-26T20:36:08.207Z,860.67
2022-09-26T20:38:39.701Z,863.20
2022-09-26T20:41:13.561Z,860.27
2022-09-26T20:43:47.903Z,859.10
2022-09-26T20:46:16.500Z,854.27
2022-09-26T20:48:45.394Z,855.33
2022-09-26T20:51:20.584Z,863.43
2022-09-26T20:53:49.821Z,856.43
2022-09-26T20:56:21.939Z,860.53
2022-09-26T20:58:50.523Z,858.43
2022-09-26T21:01:21.247Z,864.60
2022-09-26T21:03:51.782Z,872.93
2022-09-26T21:06:22.964Z,879.57
2022-09-26T21:08:51.231Z,871.50
2022-09-26T21:11:23.732Z,873.53
2022-09-26T21:13:57.735Z,866.97
2022-09-26T21:16:36.170Z,863.20
2022-09-26T21:19:08.397Z,866.43
2022-09-26T21:21:38.732Z,870.03
2022-09-26T21:24:31.094Z,855.87
2022-09-26T21:26:59.476Z,859.17
2022-09-26T21:29:28.786Z,863.43
2022-09-26T21:32:02.973Z,864.23
2022-09-26T21:34:33.321Z,864.83
2022-09-26T21:37:03.890Z,864.90
2022-09-26T21:39:32.529Z,863.67
2022-09-26T21:42:04.449Z,862.77
2022-09-26T21:44:37.944Z,864.73
2022-09-26T21:47:06.215Z,863.67
2022-09-26T21:49:34.578Z,859.63
2022-09-26T21:52:07.567Z,857.50
2022-09-26T21:54:38.663Z,861.63
2022-09-26T21:57:08.869Z,860.07
2022-09-26T21:59:38.315Z,860.33
2022-09-26T22:02:06.708Z,861.63
2022-09-26T22:04:35.268Z,858.33
2022-09-26T22:07:05.118Z,860.27
2022-09-26T22:09:33.649Z,857.97
2022-09-26T22:12:02.227Z,856.80
2022-09-26T22:14:30.373Z,857.37
2022-09-26T22:16:59.123Z,852.70
2022-09-26T22:19:32.789Z,852.50
2022-09-26T22:22:00.991Z,853.30
2022-09-26T22:24:31.990Z,856.70
2022-09-26T22:27:00.283Z,853.97
2022-09-26T22:29:28.486Z,856.93
2022-09-26T22:31:56.737Z,851.53
2022-09-26T22:34:25.680Z,858.10
2022-09-26T22:36:54.082Z,856.17
2022-09-26T22:39:22.409Z,859.77
2022-09-26T22:41:52.796Z,854.17
2022-09-26T22:44:21.197Z,854.70
2022-09-26T22:46:49.325Z,850.37
2022-09-26T22:49:17.438Z,857.37
2022-09-26T22:51:45.611Z,845.53
2022-09-26T22:54:13.761Z,852.13
2022-09-26T22:56:41.958Z,852.10
2022-09-26T22:59:11.606Z,853.27
2022-09-26T23:01:39.860Z,853.70
2022-09-26T23:04:08.307Z,852.67
2022-09-26T23:06:36.516Z,851.90
2022-09-26T23:09:05.230Z,853.80
2022-09-26T23:11:33.498Z,855.90
2022-09-26T23:14:01.645Z,857.47
2022-09-26T23:16:31.173Z,859.57
2022-09-26T23:18:59.431Z,854.97
2022-09-26T23:21:28.423Z,854.40
2022-09-26T23:23:58.204Z,852.43
2022-09-26T23:26:27.954Z,854.47
2022-09-26T23:28:57.239Z,856.97
2022-09-26T23:31:26.298Z,850.10
2022-09-26T23:33:56.332Z,847.17
2022-09-26T23:36:25.378Z,851.03
2022-09-26T23:38:53.949Z,851.53
2022-09-26T23:41:22.430Z,861.73
2022-09-26T23:43:50.619Z,863.13
2022-09-26T23:46:18.996Z,863.97
2022-09-26T23:48:47.125Z,862.50
2022-09-26T23:51:16.544Z,864.87
2022-09-26T23:53:44.666Z,864.57
2022-09-26T23:56:14.108Z,866.10
2022-09-26T23:58:42.505Z,856.90
